METAR AND TAF INFORMATION
METAR FOR UGTB
ADDS - METARS form results

(0142 UTC 18 November 2019)
Data provider http://aviationweather.gov/metar/data/
 
METAR text: UGTB 180130Z 04003KT 280V070 CAVOK 00/M03 Q1031 NOSIG
Conditions at: UGTB (TBILISI/NOVO-AL , GE) observed 0130 UTC 18 November 2019
Temperature: 0.0°C (32°F)
Dewpoint: -3.0°C (27°F) [RH = 80%]
Pressure (altimeter): 30.44 inches Hg (1031.0 mb)
Winds: from the NE (40 degrees) at 3 MPH (3 knots; 1.5 m/s)
Visibility: 6 or more miles (10+ km)
Ceiling: ceiling and visibility are OK
Clouds: unknown
Weather: no significant weather observed at this time

METAR text: UGTB 180100Z 00000KT CAVOK 00/M03 Q1031 NOSIG
Conditions at: UGTB (TBILISI/NOVO-AL , GE) observed 0100 UTC 18 November 2019
Temperature: 0.0°C (32°F)
Dewpoint: -3.0°C (27°F) [RH = 80%]
Pressure (altimeter): 30.44 inches Hg (1031.0 mb)
Winds: calm
Visibility: 6 or more miles (10+ km)
Ceiling: ceiling and visibility are OK
Clouds: unknown
Weather: no significant weather observed at this time

Forecast for: UGTB (TBILISI/NOVO-AL , GE)
Text: TAF UGTB 172300Z 1800/1824 VRB02KT CAVOK TX11/1811Z TNM01/1803Z
Forecast period: 0000 UTC 18 November 2019 to 0000 UTC 19 November 2019
Forecast type: FROM: standard forecast or significant change
Winds: variable direction winds at 2 MPH (2 knots; 1.0 m/s)
Visibility: 6 or more miles 10+ km)
Ceiling: unknown
Clouds: missing
Weather: no significant weather forecast for this period
Text: TEMPO 1809/1816 15010KT
Forecast period: 0900 to 1600 UTC 18 November 2019
Forecast type: TEMPORARY: The following changes expected for less than half the time period
Winds: from the SSE (150 degrees) at 12 MPH (10 knots; 5.1 m/s)
Visibility: missing
Ceiling: unknown
Clouds: missing
Weather: no significant weather forecast for this period

 AIRPORT MAP

 RUNWAY INFORMATION

 AIRPORT FREQUENCIES
Type APP Name APP Frequency 127.2 MHZ
Type ATIS Name ATIS Frequency 132.8 MHZ
Type GND Name GND Frequency 119 MHZ
Type TWR Name TWR Frequency 128 MHZ

 AIRPORT NEAR NAVIGATION AIDS



2018 Air Astana Virtual Airline